MAPA DE AEROPUERTO

INFORMACIÓN METAR y TAF

METAR FOR LEST
ADDS - METARS form results

(1011 UTC 29 January 2022)
Data provider http://aviationweather.gov/metar/data/
 
METAR text: LEST 291000Z 10004KT CAVOK 08/M03 Q1034 NOSIG
Conditions at: LEST (SANTIAGO/LABACOL, ES) observed 1000 UTC 29 January 2022
Temperature: 8.0°C (46°F)
Dewpoint: -3.0°C (27°F) [RH = 46%]
Pressure (altimeter): 30.53 inches Hg (1034.0 mb)
Winds: from the E (100 degrees) at 5 MPH (4 knots; 2.1 m/s)
Visibility: 6 or more miles (10+ km)
Ceiling: ceiling and visibility are OK
Clouds: unknown
Weather: no significant weather observed at this time

METAR text: LEST 290930Z VRB01KT CAVOK 07/M02 Q1033 NOSIG
Conditions at: LEST (SANTIAGO/LABACOL, ES) observed 0930 UTC 29 January 2022
Temperature: 7.0°C (45°F)
Dewpoint: -2.0°C (28°F) [RH = 53%]
Pressure (altimeter): 30.50 inches Hg (1033.0 mb)
Winds: variable direction winds at 1 MPH (1 knots; 0.5 m/s)
Visibility: 6 or more miles (10+ km)
Ceiling: ceiling and visibility are OK
Clouds: unknown
Weather: no significant weather observed at this time

Forecast for: AMD
Text: TAF AMD LEST 290600Z 2906/3006 08007KT CAVOK TX15/2915Z TNM01/2907Z
Forecast period: 0600 UTC 29 January 2022 to 0600 UTC 30 January 2022
Forecast type: FROM: standard forecast or significant change
Winds: from the E (80 degrees) at 8 MPH (7 knots; 3.6 m/s)
Visibility: 6 or more miles (10+ km)
Ceiling: unknown
Clouds: missing
Weather: no significant weather forecast for this period